sensor_id;sensor_type;location;lat;lon;timestamp;pressure;altitude;pressure_sealevel;temperature;humidity
21869;BME280;11099;41.564;23.296;2024-03-29T00:00:23;97499.44;;;21.52;32.40
21869;BME280;11099;41.564;23.296;2024-03-29T03:12:32;97519.69;;;17.45;40.12
21869;BME280;11099;41.564;23.296;2024-03-29T03:15:20;97553.03;;;17.56;40.61
21869;BME280;11099;41.564;23.296;2024-03-29T04:59:08;97715.78;;;18.41;40.48
21869;BME280;11099;41.564;23.296;2024-03-29T05:33:00;97677.16;;;24.77;29.95
21869;BME280;11099;41.564;23.296;2024-03-29T05:35:26;97708.75;;;23.50;30.83
21869;BME280;11099;41.564;23.296;2024-03-29T05:38:13;97654.78;;;23.45;31.22
21869;BME280;11099;41.564;23.296;2024-03-29T05:44:13;97696.88;;;22.78;31.98
21869;BME280;11099;41.564;23.296;2024-03-29T05:47:26;97673.06;;;23.90;30.60
21869;BME280;11099;41.564;23.296;2024-03-29T05:53:17;97716.94;;;24.42;30.71
21869;BME280;11099;41.564;23.296;2024-03-29T05:55:43;97762.38;;;24.49;30.65
21869;BME280;11099;41.564;23.296;2024-03-29T05:58:09;97763.31;;;25.27;29.25
21869;BME280;11099;41.564;23.296;2024-03-29T06:00:34;97733.50;;;24.91;29.01
21869;BME280;11099;41.564;23.296;2024-03-29T06:03:01;97747.66;;;23.97;32.31
21869;BME280;11099;41.564;23.296;2024-03-29T06:05:30;97699.00;;;24.59;31.19
21869;BME280;11099;41.564;23.296;2024-03-29T06:07:56;97748.56;;;25.28;31.51
21869;BME280;11099;41.564;23.296;2024-03-29T06:10:22;97727.53;;;25.28;31.64
21869;BME280;11099;41.564;23.296;2024-03-29T06:12:48;97746.97;;;25.27;32.20
21869;BME280;11099;41.564;23.296;2024-03-29T06:15:13;97732.00;;;24.79;32.83
21869;BME280;11099;41.564;23.296;2024-03-29T06:17:57;97781.41;;;24.70;33.55
21869;BME280;11099;41.564;23.296;2024-03-29T06:20:24;97766.97;;;24.84;32.91
21869;BME280;11099;41.564;23.296;2024-03-29T06:22:49;97778.78;;;25.47;32.51
21869;BME280;11099;41.564;23.296;2024-03-29T06:25:15;97763.16;;;24.28;33.17
21869;BME280;11099;41.564;23.296;2024-03-29T06:27:41;97778.16;;;25.22;33.29
21869;BME280;11099;41.564;23.296;2024-03-29T06:30:13;97779.88;;;24.59;34.20
21869;BME280;11099;41.564;23.296;2024-03-29T06:32:39;97748.41;;;24.15;34.85
21869;BME280;11099;41.564;23.296;2024-03-29T06:35:05;97755.41;;;24.30;34.91
21869;BME280;11099;41.564;23.296;2024-03-29T06:37:31;97744.06;;;23.35;34.62
21869;BME280;11099;41.564;23.296;2024-03-29T06:39:57;97780.25;;;24.00;33.76
21869;BME280;11099;41.564;23.296;2024-03-29T06:42:22;97780.28;;;24.57;33.33
21869;BME280;11099;41.564;23.296;2024-03-29T06:44:48;97760.69;;;25.09;32.95
21869;BME280;11099;41.564;23.296;2024-03-29T06:47:14;97719.84;;;24.98;33.99
21869;BME280;11099;41.564;23.296;2024-03-29T06:49:40;97791.06;;;25.00;34.28
21869;BME280;11099;41.564;23.296;2024-03-29T06:52:12;97704.88;;;24.22;34.72
21869;BME280;11099;41.564;23.296;2024-03-29T06:57:13;97752.97;;;24.86;33.36
21869;BME280;11099;41.564;23.296;2024-03-29T06:59:42;97791.91;;;24.65;34.39
21869;BME280;11099;41.564;23.296;2024-03-29T07:02:13;97795.06;;;24.38;34.68
21869;BME280;11099;41.564;23.296;2024-03-29T07:04:39;97773.66;;;23.76;36.26
21869;BME280;11099;41.564;23.296;2024-03-29T07:07:04;97709.94;;;23.84;35.29
21869;BME280;11099;41.564;23.296;2024-03-29T07:09:30;97793.38;;;25.02;33.82
21869;BME280;11099;41.564;23.296;2024-03-29T07:11:56;97718.53;;;25.31;32.54
21869;BME280;11099;41.564;23.296;2024-03-29T07:14:23;97788.81;;;23.81;35.24
21869;BME280;11099;41.564;23.296;2024-03-29T07:16:50;97719.63;;;23.46;34.95
21869;BME280;11099;41.564;23.296;2024-03-29T07:19:16;97784.78;;;25.17;33.25
21869;BME280;11099;41.564;23.296;2024-03-29T07:21:45;97794.78;;;25.45;33.28
21869;BME280;11099;41.564;23.296;2024-03-29T07:24:12;97822.22;;;24.70;33.22
21869;BME280;11099;41.564;23.296;2024-03-29T07:26:37;97831.97;;;24.68;32.07
21869;BME280;11099;41.564;23.296;2024-03-29T07:29:05;97820.66;;;24.84;31.82
21869;BME280;11099;41.564;23.296;2024-03-29T07:31:32;97839.72;;;24.27;33.06
21869;BME280;11099;41.564;23.296;2024-03-29T07:33:59;97815.84;;;25.34;31.02
21869;BME280;11099;41.564;23.296;2024-03-29T07:36:24;97769.06;;;25.50;30.56
21869;BME280;11099;41.564;23.296;2024-03-29T07:38:52;97780.22;;;24.79;31.36
21869;BME280;11099;41.564;23.296;2024-03-29T07:41:18;97820.22;;;25.00;31.33
21869;BME280;11099;41.564;23.296;2024-03-29T07:43:57;97778.63;;;25.06;30.73
21869;BME280;11099;41.564;23.296;2024-03-29T07:46:32;97831.84;;;25.21;30.20
21869;BME280;11099;41.564;23.296;2024-03-29T07:48:58;97821.00;;;25.04;31.19
21869;BME280;11099;41.564;23.296;2024-03-29T07:51:23;97844.66;;;25.35;29.81
21869;BME280;11099;41.564;23.296;2024-03-29T07:53:49;97808.84;;;25.33;30.17
21869;BME280;11099;41.564;23.296;2024-03-29T07:56:15;97784.53;;;24.33;30.97
21869;BME280;11099;41.564;23.296;2024-03-29T07:58:43;97782.19;;;24.75;30.16
21869;BME280;11099;41.564;23.296;2024-03-29T08:01:08;97838.97;;;24.55;30.77
21869;BME280;11099;41.564;23.296;2024-03-29T08:03:34;97837.81;;;24.34;30.95
21869;BME280;11099;41.564;23.296;2024-03-29T08:06:00;97783.31;;;24.84;30.91
21869;BME280;11099;41.564;23.296;2024-03-29T08:08:33;97817.66;;;25.66;29.75
21869;BME280;11099;41.564;23.296;2024-03-29T08:11:01;97794.03;;;25.38;30.69
21869;BME280;11099;41.564;23.296;2024-03-29T08:13:27;97837.22;;;25.46;30.56
21869;BME280;11099;41.564;23.296;2024-03-29T08:15:57;97809.53;;;25.55;30.45
21869;BME280;11099;41.564;23.296;2024-03-29T08:18:27;97790.59;;;25.23;29.87
21869;BME280;11099;41.564;23.296;2024-03-29T08:20:54;97841.78;;;25.74;30.78
21869;BME280;11099;41.564;23.296;2024-03-29T08:23:21;97817.09;;;25.92;29.68
21869;BME280;11099;41.564;23.296;2024-03-29T08:25:47;97824.13;;;25.93;31.60
21869;BME280;11099;41.564;23.296;2024-03-29T08:28:13;97820.16;;;26.05;33.14
21869;BME280;11099;41.564;23.296;2024-03-29T08:30:39;97831.00;;;26.12;32.31
21869;BME280;11099;41.564;23.296;2024-03-29T08:33:05;97787.47;;;26.46;30.79
21869;BME280;11099;41.564;23.296;2024-03-29T08:35:32;97778.06;;;26.02;31.09
21869;BME280;11099;41.564;23.296;2024-03-29T08:37:59;97837.06;;;26.38;32.06
21869;BME280;11099;41.564;23.296;2024-03-29T08:40:27;97786.28;;;26.85;30.82
21869;BME280;11099;41.564;23.296;2024-03-29T08:42:57;97788.44;;;27.04;30.36
21869;BME280;11099;41.564;23.296;2024-03-29T08:45:23;97832.41;;;27.82;29.85
21869;BME280;11099;41.564;23.296;2024-03-29T08:47:49;97839.13;;;27.43;31.58
21869;BME280;11099;41.564;23.296;2024-03-29T08:50:15;97815.41;;;26.65;32.82
21869;BME280;11099;41.564;23.296;2024-03-29T08:52:40;97779.72;;;27.17;32.34
21869;BME280;11099;41.564;23.296;2024-03-29T08:55:07;97777.88;;;27.03;31.70
21869;BME280;11099;41.564;23.296;2024-03-29T08:57:33;97770.47;;;26.69;33.52
21869;BME280;11099;41.564;23.296;2024-03-29T08:59:59;97799.38;;;26.67;33.45
21869;BME280;11099;41.564;23.296;2024-03-29T09:02:25;97794.47;;;25.99;34.07
21869;BME280;11099;41.564;23.296;2024-03-29T09:04:51;97779.59;;;26.56;33.85
21869;BME280;11099;41.564;23.296;2024-03-29T09:07:16;97812.41;;;26.90;33.22
21869;BME280;11099;41.564;23.296;2024-03-29T09:09:42;97802.06;;;27.42;33.18
21869;BME280;11099;41.564;23.296;2024-03-29T09:12:08;97761.50;;;26.69;33.23
21869;BME280;11099;41.564;23.296;2024-03-29T09:14:34;97767.91;;;27.23;32.43
21869;BME280;11099;41.564;23.296;2024-03-29T09:17:00;97765.31;;;27.13;33.31
21869;BME280;11099;41.564;23.296;2024-03-29T09:19:27;97786.28;;;27.23;33.04
21869;BME280;11099;41.564;23.296;2024-03-29T09:21:52;97780.53;;;27.44;31.73
21869;BME280;11099;41.564;23.296;2024-03-29T09:24:18;97756.88;;;27.30;31.81
21869;BME280;11099;41.564;23.296;2024-03-29T09:26:44;97811.28;;;27.82;30.91
21869;BME280;11099;41.564;23.296;2024-03-29T09:29:10;97774.63;;;28.27;30.87
21869;BME280;11099;41.564;23.296;2024-03-29T09:31:38;97763.75;;;28.47;29.79
21869;BME280;11099;41.564;23.296;2024-03-29T09:34:05;97747.72;;;27.14;30.03
21869;BME280;11099;41.564;23.296;2024-03-29T09:36:30;97752.00;;;27.76;30.12
21869;BME280;11099;41.564;23.296;2024-03-29T09:38:56;97755.16;;;28.21;29.63
21869;BME280;11099;41.564;23.296;2024-03-29T09:41:24;97729.19;;;28.29;29.82
21869;BME280;11099;41.564;23.296;2024-03-29T09:43:52;97749.16;;;27.25;30.70
21869;BME280;11099;41.564;23.296;2024-03-29T09:46:20;97763.56;;;27.56;30.91
21869;BME280;11099;41.564;23.296;2024-03-29T09:48:47;97758.97;;;28.51;29.62
21869;BME280;11099;41.564;23.296;2024-03-29T09:51:14;97765.38;;;27.70;29.48
21869;BME280;11099;41.564;23.296;2024-03-29T09:53:44;97776.03;;;28.12;30.29
21869;BME280;11099;41.564;23.296;2024-03-29T09:56:11;97738.75;;;27.98;29.62
21869;BME280;11099;41.564;23.296;2024-03-29T09:58:38;97779.19;;;28.37;28.93
21869;BME280;11099;41.564;23.296;2024-03-29T10:01:06;97735.06;;;28.31;28.94
21869;BME280;11099;41.564;23.296;2024-03-29T10:03:39;97715.81;;;28.58;28.38
21869;BME280;11099;41.564;23.296;2024-03-29T10:06:05;97756.00;;;29.25;28.03
21869;BME280;11099;41.564;23.296;2024-03-29T10:08:33;97759.88;;;28.21;28.73
21869;BME280;11099;41.564;23.296;2024-03-29T10:11:00;97713.28;;;28.01;29.44
21869;BME280;11099;41.564;23.296;2024-03-29T10:13:26;97735.91;;;29.11;28.67
21869;BME280;11099;41.564;23.296;2024-03-29T10:15:52;97705.53;;;27.96;29.35
21869;BME280;11099;41.564;23.296;2024-03-29T10:18:21;97688.34;;;28.19;28.72
21869;BME280;11099;41.564;23.296;2024-03-29T10:20:58;97721.72;;;29.33;28.08
21869;BME280;11099;41.564;23.296;2024-03-29T10:23:25;97720.66;;;29.10;27.81
21869;BME280;11099;41.564;23.296;2024-03-29T10:25:50;97704.19;;;29.10;28.32
21869;BME280;11099;41.564;23.296;2024-03-29T10:28:18;97713.78;;;28.63;28.70
21869;BME280;11099;41.564;23.296;2024-03-29T10:30:44;97714.72;;;29.48;27.75
21869;BME280;11099;41.564;23.296;2024-03-29T10:33:09;97671.41;;;29.59;26.62
21869;BME280;11099;41.564;23.296;2024-03-29T10:35:35;97649.41;;;29.43;26.43
21869;BME280;11099;41.564;23.296;2024-03-29T10:38:04;97688.78;;;29.53;26.87
21869;BME280;11099;41.564;23.296;2024-03-29T10:40:30;97695.91;;;29.66;27.37
21869;BME280;11099;41.564;23.296;2024-03-29T10:42:56;97654.22;;;29.88;27.21
21869;BME280;11099;41.564;23.296;2024-03-29T10:45:23;97668.09;;;30.42;27.21
21869;BME280;11099;41.564;23.296;2024-03-29T10:47:49;97669.22;;;28.98;28.43
21869;BME280;11099;41.564;23.296;2024-03-29T10:50:19;97671.97;;;28.78;28.87
21869;BME280;11099;41.564;23.296;2024-03-29T10:52:47;97656.09;;;29.42;27.20
21869;BME280;11099;41.564;23.296;2024-03-29T10:55:13;97635.81;;;29.72;26.60
21869;BME280;11099;41.564;23.296;2024-03-29T10:57:41;97662.94;;;29.99;26.32
21869;BME280;11099;41.564;23.296;2024-03-29T11:00:15;97633.66;;;29.80;25.58
21869;BME280;11099;41.564;23.296;2024-03-29T11:05:35;97653.44;;;30.62;25.85
21869;BME280;11099;41.564;23.296;2024-03-29T11:08:06;97623.53;;;30.51;25.37
21869;BME280;11099;41.564;23.296;2024-03-29T11:10:36;97673.66;;;30.97;25.20
21869;BME280;11099;41.564;23.296;2024-03-29T11:15:59;97680.50;;;29.73;26.33
21869;BME280;11099;41.564;23.296;2024-03-29T11:18:26;97640.75;;;29.93;26.03
21869;BME280;11099;41.564;23.296;2024-03-29T11:20:53;97625.88;;;30.24;25.41
21869;BME280;11099;41.564;23.296;2024-03-29T11:23:21;97650.34;;;30.02;25.53
21869;BME280;11099;41.564;23.296;2024-03-29T11:25:51;97624.22;;;29.81;26.06
21869;BME280;11099;41.564;23.296;2024-03-29T11:28:37;97616.97;;;30.03;27.00
21869;BME280;11099;41.564;23.296;2024-03-29T11:31:07;97638.81;;;30.65;25.58
21869;BME280;11099;41.564;23.296;2024-03-29T11:36:29;97624.69;;;30.37;26.35
21869;BME280;11099;41.564;23.296;2024-03-29T11:38:57;97635.72;;;29.76;26.36
21869;BME280;11099;41.564;23.296;2024-03-29T11:41:27;97613.06;;;29.88;26.47
21869;BME280;11099;41.564;23.296;2024-03-29T11:43:55;97615.09;;;30.16;25.98
21869;BME280;11099;41.564;23.296;2024-03-29T11:46:21;97593.75;;;29.91;26.07
21869;BME280;11099;41.564;23.296;2024-03-29T11:48:47;97593.94;;;30.42;25.30
21869;BME280;11099;41.564;23.296;2024-03-29T11:51:19;97619.56;;;30.39;26.69
21869;BME280;11099;41.564;23.296;2024-03-29T11:53:47;97616.03;;;29.93;26.48
21869;BME280;11099;41.564;23.296;2024-03-29T11:56:13;97599.13;;;30.53;25.49
21869;BME280;11099;41.564;23.296;2024-03-29T11:58:39;97577.44;;;30.01;25.99
21869;BME280;11099;41.564;23.296;2024-03-29T12:01:05;97576.56;;;30.75;25.24
21869;BME280;11099;41.564;23.296;2024-03-29T12:03:32;97604.69;;;30.37;26.04
21869;BME280;11099;41.564;23.296;2024-03-29T12:05:59;97570.91;;;30.53;25.86
21869;BME280;11099;41.564;23.296;2024-03-29T12:08:34;97602.44;;;29.90;26.90
21869;BME280;11099;41.564;23.296;2024-03-29T12:11:01;97594.53;;;30.21;25.80
21869;BME280;11099;41.564;23.296;2024-03-29T12:13:28;97566.84;;;30.44;24.80
21869;BME280;11099;41.564;23.296;2024-03-29T12:15:54;97601.06;;;29.82;25.82
21869;BME280;11099;41.564;23.296;2024-03-29T12:18:20;97603.81;;;29.17;25.54
21869;BME280;11099;41.564;23.296;2024-03-29T12:20:51;97596.50;;;30.50;25.45
21869;BME280;11099;41.564;23.296;2024-03-29T12:23:18;97576.69;;;30.42;25.16
21869;BME280;11099;41.564;23.296;2024-03-29T12:25:44;97548.63;;;29.92;25.60
21869;BME280;11099;41.564;23.296;2024-03-29T12:28:11;97536.56;;;29.90;25.07
21869;BME280;11099;41.564;23.296;2024-03-29T12:30:40;97582.72;;;30.08;24.91
21869;BME280;11099;41.564;23.296;2024-03-29T12:33:17;97573.25;;;30.25;25.18
21869;BME280;11099;41.564;23.296;2024-03-29T12:35:50;97592.06;;;30.81;24.81
21869;BME280;11099;41.564;23.296;2024-03-29T12:38:19;97575.16;;;30.41;25.50
21869;BME280;11099;41.564;23.296;2024-03-29T12:40:46;97584.28;;;30.38;25.35
21869;BME280;11099;41.564;23.296;2024-03-29T12:43:13;97565.25;;;30.31;25.17
21869;BME280;11099;41.564;23.296;2024-03-29T12:45:40;97588.38;;;30.46;25.01
21869;BME280;11099;41.564;23.296;2024-03-29T12:48:15;97588.19;;;30.66;25.95
21869;BME280;11099;41.564;23.296;2024-03-29T12:50:43;97538.16;;;30.58;24.99
21869;BME280;11099;41.564;23.296;2024-03-29T12:53:11;97581.53;;;31.05;24.95
21869;BME280;11099;41.564;23.296;2024-03-29T12:55:39;97573.03;;;30.74;25.70
21869;BME280;11099;41.564;23.296;2024-03-29T12:58:07;97568.38;;;30.46;25.88
21869;BME280;11099;41.564;23.296;2024-03-29T13:00:35;97559.41;;;30.96;25.90
21869;BME280;11099;41.564;23.296;2024-03-29T13:03:04;97570.84;;;31.33;25.70
21869;BME280;11099;41.564;23.296;2024-03-29T13:05:30;97528.06;;;30.68;26.03
21869;BME280;11099;41.564;23.296;2024-03-29T13:08:04;97573.47;;;30.98;24.90
21869;BME280;11099;41.564;23.296;2024-03-29T13:10:30;97538.28;;;31.06;25.24
21869;BME280;11099;41.564;23.296;2024-03-29T13:12:56;97535.63;;;30.38;25.48
21869;BME280;11099;41.564;23.296;2024-03-29T13:15:23;97560.06;;;31.38;25.09
21869;BME280;11099;41.564;23.296;2024-03-29T13:17:51;97540.25;;;31.18;24.95
21869;BME280;11099;41.564;23.296;2024-03-29T13:20:17;97563.47;;;31.77;24.50
21869;BME280;11099;41.564;23.296;2024-03-29T13:22:44;97566.09;;;31.20;25.32
21869;BME280;11099;41.564;23.296;2024-03-29T13:25:12;97542.16;;;30.83;24.57
21869;BME280;11099;41.564;23.296;2024-03-29T13:27:39;97550.84;;;30.81;24.74
21869;BME280;11099;41.564;23.296;2024-03-29T13:30:06;97563.56;;;31.26;24.81
21869;BME280;11099;41.564;23.296;2024-03-29T13:32:32;97539.47;;;30.41;25.32
21869;BME280;11099;41.564;23.296;2024-03-29T13:34:59;97569.75;;;31.05;24.74
21869;BME280;11099;41.564;23.296;2024-03-29T13:40:11;97559.94;;;31.16;22.95
21869;BME280;11099;41.564;23.296;2024-03-29T13:42:38;97557.97;;;31.64;23.51
21869;BME280;11099;41.564;23.296;2024-03-29T13:45:04;97555.16;;;31.55;22.91
21869;BME280;11099;41.564;23.296;2024-03-29T13:47:41;97554.25;;;31.58;23.43
21869;BME280;11099;41.564;23.296;2024-03-29T13:50:08;97553.50;;;31.58;23.58
21869;BME280;11099;41.564;23.296;2024-03-29T13:52:34;97549.47;;;31.24;23.86
21869;BME280;11099;41.564;23.296;2024-03-29T13:55:01;97563.69;;;31.22;22.72
21869;BME280;11099;41.564;23.296;2024-03-29T13:57:28;97529.94;;;30.71;23.30
21869;BME280;11099;41.564;23.296;2024-03-29T13:59:54;97520.69;;;30.65;23.83
21869;BME280;11099;41.564;23.296;2024-03-29T14:02:20;97567.31;;;30.81;24.15
21869;BME280;11099;41.564;23.296;2024-03-29T14:04:46;97524.84;;;31.20;23.52
21869;BME280;11099;41.564;23.296;2024-03-29T14:07:14;97565.56;;;30.87;23.25
21869;BME280;11099;41.564;23.296;2024-03-29T14:09:41;97550.84;;;30.81;24.11
21869;BME280;11099;41.564;23.296;2024-03-29T14:12:07;97519.03;;;31.18;24.03
21869;BME280;11099;41.564;23.296;2024-03-29T14:14:33;97555.56;;;31.32;23.94
21869;BME280;11099;41.564;23.296;2024-03-29T14:16:59;97521.00;;;31.18;22.88
21869;BME280;11099;41.564;23.296;2024-03-29T14:19:33;97517.94;;;31.03;23.73
21869;BME280;11099;41.564;23.296;2024-03-29T14:22:00;97495.50;;;31.17;23.54
21869;BME280;11099;41.564;23.296;2024-03-29T14:24:27;97483.38;;;31.15;23.70
21869;BME280;11099;41.564;23.296;2024-03-29T14:26:56;97504.81;;;31.20;23.50
21869;BME280;11099;41.564;23.296;2024-03-29T14:29:22;97531.56;;;31.19;23.88
21869;BME280;11099;41.564;23.296;2024-03-29T14:31:51;97516.63;;;31.08;24.33
21869;BME280;11099;41.564;23.296;2024-03-29T14:34:21;97480.16;;;30.56;24.03
21869;BME280;11099;41.564;23.296;2024-03-29T14:37:08;97551.16;;;30.96;23.54
21869;BME280;11099;41.564;23.296;2024-03-29T14:39:43;97489.69;;;30.64;24.38
21869;BME280;11099;41.564;23.296;2024-03-29T14:46:00;97521.22;;;30.47;24.70
21869;BME280;11099;41.564;23.296;2024-03-29T14:48:40;97470.63;;;30.06;24.39
21869;BME280;11099;41.564;23.296;2024-03-29T14:51:06;97469.47;;;30.46;24.18
21869;BME280;11099;41.564;23.296;2024-03-29T14:53:36;97475.88;;;30.55;24.46
21869;BME280;11099;41.564;23.296;2024-03-29T14:56:06;97478.69;;;30.13;24.89
21869;BME280;11099;41.564;23.296;2024-03-29T14:58:39;97498.59;;;30.56;24.69
21869;BME280;11099;41.564;23.296;2024-03-29T15:01:05;97522.22;;;31.04;24.48
21869;BME280;11099;41.564;23.296;2024-03-29T15:03:31;97515.97;;;30.40;24.13
21869;BME280;11099;41.564;23.296;2024-03-29T15:05:58;97531.34;;;30.50;24.15
21869;BME280;11099;41.564;23.296;2024-03-29T15:08:24;97504.06;;;30.17;24.70
21869;BME280;11099;41.564;23.296;2024-03-29T15:11:06;97487.00;;;29.52;25.03
21869;BME280;11099;41.564;23.296;2024-03-29T15:14:36;97556.34;;;30.27;24.99
21869;BME280;11099;41.564;23.296;2024-03-29T15:17:17;97525.59;;;29.90;24.78
21869;BME280;11099;41.564;23.296;2024-03-29T15:19:50;97485.88;;;29.49;24.80
21869;BME280;11099;41.564;23.296;2024-03-29T15:22:42;97532.19;;;29.63;25.58
21869;BME280;11099;41.564;23.296;2024-03-29T15:25:44;97488.38;;;28.62;25.97
21869;BME280;11099;41.564;23.296;2024-03-29T15:28:37;97495.63;;;29.05;25.10
21869;BME280;11099;41.564;23.296;2024-03-29T15:31:49;97527.81;;;29.17;25.13
21869;BME280;11099;41.564;23.296;2024-03-29T15:38:13;97500.44;;;27.92;26.12
21869;BME280;11099;41.564;23.296;2024-03-29T15:41:00;97483.41;;;28.41;25.58
21869;BME280;11099;41.564;23.296;2024-03-29T15:43:27;97514.72;;;28.20;25.44
21869;BME280;11099;41.564;23.296;2024-03-29T15:45:56;97552.59;;;27.81;26.45
21869;BME280;11099;41.564;23.296;2024-03-29T15:48:47;97514.94;;;28.09;25.66
21869;BME280;11099;41.564;23.296;2024-03-29T15:51:13;97486.44;;;28.06;26.23
21869;BME280;11099;41.564;23.296;2024-03-29T15:54:06;97591.97;;;28.67;26.37
21869;BME280;11099;41.564;23.296;2024-03-29T16:00:19;97499.19;;;27.53;27.39
21869;BME280;11099;41.564;23.296;2024-03-29T16:02:58;97515.56;;;27.77;27.45
21869;BME280;11099;41.564;23.296;2024-03-29T16:05:26;97483.75;;;27.43;27.46
21869;BME280;11099;41.564;23.296;2024-03-29T16:07:55;97585.75;;;28.27;27.41
21869;BME280;11099;41.564;23.296;2024-03-29T16:10:27;97547.53;;;27.56;28.15
21869;BME280;11099;41.564;23.296;2024-03-29T16:12:57;97538.59;;;27.33;28.48
21869;BME280;11099;41.564;23.296;2024-03-29T16:15:27;97524.50;;;27.34;28.46
21869;BME280;11099;41.564;23.296;2024-03-29T16:17:52;97554.69;;;27.50;28.35
21869;BME280;11099;41.564;23.296;2024-03-29T16:20:18;97555.41;;;27.31;28.61
21869;BME280;11099;41.564;23.296;2024-03-29T16:22:43;97572.28;;;27.49;28.76
21869;BME280;11099;41.564;23.296;2024-03-29T16:25:10;97544.59;;;27.47;29.02
21869;BME280;11099;41.564;23.296;2024-03-29T16:27:40;97556.19;;;27.04;29.75
21869;BME280;11099;41.564;23.296;2024-03-29T16:30:15;97515.50;;;26.87;29.45
21869;BME280;11099;41.564;23.296;2024-03-29T16:32:43;97585.88;;;27.02;30.14
21869;BME280;11099;41.564;23.296;2024-03-29T16:35:08;97514.69;;;26.59;30.10
21869;BME280;11099;41.564;23.296;2024-03-29T16:37:40;97519.41;;;26.59;29.86
21869;BME280;11099;41.564;23.296;2024-03-29T16:40:13;97527.13;;;26.64;30.00
21869;BME280;11099;41.564;23.296;2024-03-29T16:42:39;97523.09;;;26.45;30.18
21869;BME280;11099;41.564;23.296;2024-03-29T16:48:07;97529.25;;;26.18;30.40
21869;BME280;11099;41.564;23.296;2024-03-29T16:50:55;97578.63;;;26.65;30.52
21869;BME280;11099;41.564;23.296;2024-03-29T16:53:32;97519.81;;;26.26;30.17
21869;BME280;11099;41.564;23.296;2024-03-29T17:02:43;97534.09;;;26.38;29.30
21869;BME280;11099;41.564;23.296;2024-03-29T17:05:46;97564.13;;;26.38;29.28
21869;BME280;11099;41.564;23.296;2024-03-29T17:21:20;97575.19;;;26.58;29.05
21869;BME280;11099;41.564;23.296;2024-03-29T17:29:26;97599.97;;;26.40;29.95
21869;BME280;11099;41.564;23.296;2024-03-29T17:31:58;97599.41;;;26.56;29.86
21869;BME280;11099;41.564;23.296;2024-03-29T17:34:30;97550.75;;;26.13;29.75
21869;BME280;11099;41.564;23.296;2024-03-29T17:46:14;97603.25;;;25.90;31.07
21869;BME280;11099;41.564;23.296;2024-03-29T18:12:04;97638.03;;;26.16;30.33
21869;BME280;11099;41.564;23.296;2024-03-29T18:15:14;97584.16;;;25.90;30.36
21869;BME280;11099;41.564;23.296;2024-03-29T18:18:02;97597.50;;;26.15;30.29
21869;BME280;11099;41.564;23.296;2024-03-29T18:20:52;97564.31;;;25.41;30.67
21869;BME280;11099;41.564;23.296;2024-03-29T18:23:43;97575.22;;;25.86;29.56
21869;BME280;11099;41.564;23.296;2024-03-29T18:26:34;97652.47;;;26.17;30.45
21869;BME280;11099;41.564;23.296;2024-03-29T18:29:02;97603.28;;;26.20;30.14
21869;BME280;11099;41.564;23.296;2024-03-29T18:31:29;97658.03;;;26.40;30.61
21869;BME280;11099;41.564;23.296;2024-03-29T18:33:55;97604.09;;;26.21;30.35
21869;BME280;11099;41.564;23.296;2024-03-29T18:36:22;97656.75;;;26.56;30.18
21869;BME280;11099;41.564;23.296;2024-03-29T18:38:48;97614.75;;;26.42;29.84
21869;BME280;11099;41.564;23.296;2024-03-29T18:41:13;97658.47;;;27.03;29.45
21869;BME280;11099;41.564;23.296;2024-03-29T18:43:40;97621.72;;;26.47;29.69
21869;BME280;11099;41.564;23.296;2024-03-29T18:46:06;97657.53;;;26.52;29.88
21869;BME280;11099;41.564;23.296;2024-03-29T18:48:32;97667.03;;;26.75;29.18
21869;BME280;11099;41.564;23.296;2024-03-29T18:50:58;97633.75;;;26.84;29.51
21869;BME280;11099;41.564;23.296;2024-03-29T18:53:24;97645.28;;;26.98;28.78
21869;BME280;11099;41.564;23.296;2024-03-29T18:56:01;97649.97;;;26.67;29.59
21869;BME280;11099;41.564;23.296;2024-03-29T18:58:28;97640.53;;;26.38;30.13
21869;BME280;11099;41.564;23.296;2024-03-29T19:00:54;97662.13;;;26.59;29.80
21869;BME280;11099;41.564;23.296;2024-03-29T19:03:22;97668.25;;;27.01;29.22
21869;BME280;11099;41.564;23.296;2024-03-29T19:05:48;97653.19;;;26.89;29.41
21869;BME280;11099;41.564;23.296;2024-03-29T19:08:16;97690.63;;;26.92;29.33
21869;BME280;11099;41.564;23.296;2024-03-29T19:10:44;97690.41;;;27.10;29.81
21869;BME280;11099;41.564;23.296;2024-03-29T19:13:11;97671.16;;;25.70;32.08
21869;BME280;11099;41.564;23.296;2024-03-29T19:15:37;97643.19;;;25.62;31.49
21869;BME280;11099;41.564;23.296;2024-03-29T19:18:03;97683.53;;;25.85;31.71
21869;BME280;11099;41.564;23.296;2024-03-29T19:20:30;97663.94;;;26.35;30.55
21869;BME280;11099;41.564;23.296;2024-03-29T19:22:55;97678.16;;;26.57;30.62
21869;BME280;11099;41.564;23.296;2024-03-29T19:25:21;97686.16;;;25.99;31.15
21869;BME280;11099;41.564;23.296;2024-03-29T19:27:47;97703.38;;;25.86;31.07
21869;BME280;11099;41.564;23.296;2024-03-29T19:30:13;97669.69;;;25.62;30.91
21869;BME280;11099;41.564;23.296;2024-03-29T19:32:38;97680.16;;;26.15;30.08
21869;BME280;11099;41.564;23.296;2024-03-29T19:35:04;97693.41;;;26.13;30.27
21869;BME280;11099;41.564;23.296;2024-03-29T19:37:30;97674.28;;;26.17;30.11
21869;BME280;11099;41.564;23.296;2024-03-29T19:39:56;97675.63;;;25.46;30.41
21869;BME280;11099;41.564;23.296;2024-03-29T19:42:22;97684.69;;;25.88;30.06
21869;BME280;11099;41.564;23.296;2024-03-29T19:44:47;97719.31;;;25.35;31.83
21869;BME280;11099;41.564;23.296;2024-03-29T19:47:14;97707.97;;;25.40;31.21
21869;BME280;11099;41.564;23.296;2024-03-29T19:49:40;97713.84;;;25.39;31.35
21869;BME280;11099;41.564;23.296;2024-03-29T19:52:06;97690.91;;;24.13;32.23
21869;BME280;11099;41.564;23.296;2024-03-29T19:54:31;97732.47;;;24.53;31.68
21869;BME280;11099;41.564;23.296;2024-03-29T19:56:57;97700.53;;;24.64;31.87